Terminal Aerodrome Forecast
Issued by NWS Charleston, SC

Home | Current Version | Previous Version | Text Only | Print | Product List | Glossary On
Versions: 1 2 3 4 5 6 7 8 9 10 11 12 13 14 15 16 17 18 19
000
FTUS42 KCHS 291100
TAFSAV
TAF
KSAV 291129Z 2912/3012 VRB04KT P6SM FEW060
     FM292000 13009KT P6SM FEW050
     FM300100 16004KT P6SM FEW020
     FM300800 00000KT 6SM BR FEW005=

USA.gov is the U.S. government's official web portal to all federal, state and local government web resources and services.